Time;durP1;ratioP1;P1;durP2;ratioP2;P2;SDS_P1;SDS_P2;PMS_P1;PMS_P2;Temp;Humidity;BMP_temperature;BMP_pressure;BME280_temperature;BME280_humidity;BME280_pressure;Samples;Min_cycle;Max_cycle;Signal;HPM_P1;HPM_P2
2021/05/18 00:00:46;;;;;;;3.77;2.67;;;;;;;10.89;100.00;97514.78;3748600;77;44067;-22
2021/05/18 00:05:54;;;;;;;3.45;2.58;;;;;;;10.78;100.00;97504.80;3755575;77;43045;-22
2021/05/18 00:16:27;;;;;;;3.77;2.90;;;;;;;10.77;100.00;97524.67;3746196;77;74095;-23
2021/05/18 00:21:33;;;;;;;3.43;2.90;;;;;;;10.79;100.00;97519.95;3749601;79;43453;-22
2021/05/18 00:26:40;;;;;;;3.83;2.98;;;;;;;10.71;100.00;97528.12;3759698;77;43219;-22
2021/05/18 00:31:46;;;;;;;3.75;2.90;;;;;;;10.72;100.00;97528.45;3739345;77;44564;-22
2021/05/18 00:36:52;;;;;;;4.20;2.92;;;;;;;10.69;100.00;97533.38;3738932;77;44217;-22
2021/05/18 00:41:58;;;;;;;3.65;2.80;;;;;;;10.66;100.00;97535.91;3756448;77;43710;-22
2021/05/18 00:47:04;;;;;;;4.87;3.58;;;;;;;10.63;100.00;97543.03;3757933;77;43754;-22
2021/05/18 00:52:10;;;;;;;4.03;3.40;;;;;;;10.59;100.00;97544.41;3739298;77;44453;-22
2021/05/18 01:02:40;;;;;;;5.45;3.80;;;;;;;10.59;100.00;97558.69;3758202;77;43324;-22
2021/05/18 01:07:48;;;;;;;5.08;4.15;;;;;;;10.58;100.00;97550.80;3750872;77;43342;-23
2021/05/18 01:12:54;;;;;;;4.08;3.35;;;;;;;10.56;100.00;97560.43;3741722;77;43305;-22
2021/05/18 01:18:00;;;;;;;4.80;3.70;;;;;;;10.54;100.00;97569.20;3745986;77;43377;-22
2021/05/18 01:23:07;;;;;;;4.67;3.80;;;;;;;10.57;100.00;97574.23;3736232;77;43679;-22
2021/05/18 01:28:13;;;;;;;5.95;4.25;;;;;;;10.52;100.00;97577.14;3725507;78;43670;-22
2021/05/18 01:33:20;;;;;;;6.97;3.98;;;;;;;10.51;100.00;97585.70;3700814;78;43751;-22
2021/05/18 01:38:33;;;;;;;6.30;4.30;;;;;;;10.51;100.00;97586.23;3701759;78;44097;-22
2021/05/18 01:43:35;;;;;;;6.37;4.50;;;;;;;10.47;100.00;97589.77;3696294;79;43687;-22
2021/05/18 01:48:47;;;;;;;5.53;3.93;;;;;;;10.51;100.00;97593.78;3696491;79;69119;-23
2021/05/18 01:53:50;;;;;;;5.55;4.67;;;;;;;10.43;100.00;97593.86;3695691;79;43718;-22
2021/05/18 01:59:03;;;;;;;5.60;4.50;;;;;;;10.44;100.00;97596.36;3585474;81;43415;-22
2021/05/18 02:04:12;;;;;;;5.95;4.30;;;;;;;10.41;100.00;97602.63;3699891;79;26832;-22
2021/05/18 02:09:19;;;;;;;5.40;4.33;;;;;;;10.51;100.00;97603.21;3697735;79;43039;-23
2021/05/18 02:14:28;;;;;;;4.65;4.03;;;;;;;10.49;100.00;97613.33;3695516;79;43682;-22
2021/05/18 02:19:59;;;;;;;4.37;3.90;;;;;;;10.47;100.00;97622.94;3695328;79;26850;-22
2021/05/18 02:25:11;;;;;;;4.92;4.12;;;;;;;10.44;100.00;97642.66;3694267;79;26990;-23
2021/05/18 02:30:37;;;;;;;5.07;4.23;;;;;;;10.44;100.00;97627.85;3744028;77;70061;-22
2021/05/18 02:35:45;;;;;;;6.08;4.55;;;;;;;10.46;100.00;97648.71;3724407;79;42165;-22
2021/05/18 02:40:51;;;;;;;6.72;4.60;;;;;;;10.44;100.00;97659.64;3672020;79;43971;-22
2021/05/18 02:46:03;;;;;;;5.55;4.30;;;;;;;10.41;100.00;97655.13;3751133;77;44673;-22
2021/05/18 02:51:07;;;;;;;8.00;4.67;;;;;;;10.32;100.00;97665.94;3747090;77;44052;-22
2021/05/18 02:56:29;;;;;;;6.10;4.97;;;;;;;10.35;100.00;97671.46;3749911;79;26966;-22
2021/05/18 03:01:36;;;;;;;7.77;4.80;;;;;;;10.31;100.00;97668.78;3753122;77;43605;-22
2021/05/18 03:06:43;;;;;;;6.47;5.05;;;;;;;10.27;100.00;97676.38;3750367;77;43726;-22
2021/05/18 03:11:52;;;;;;;6.45;4.67;;;;;;;10.22;100.00;97688.70;3748778;77;43716;-22
2021/05/18 03:17:01;;;;;;;7.17;4.37;;;;;;;10.20;100.00;97680.81;3759591;77;69503;-22
2021/05/18 03:22:07;;;;;;;6.90;4.67;;;;;;;10.16;100.00;97689.76;3752518;77;69662;-20
2021/05/18 03:27:14;;;;;;;7.20;4.80;;;;;;;10.09;100.00;97700.88;3752816;78;43666;-22
2021/05/18 03:37:51;;;;;;;6.80;5.37;;;;;;;9.96;100.00;97716.75;3756348;78;44051;-23
2021/05/18 03:43:00;;;;;;;6.33;4.78;;;;;;;9.78;100.00;97723.22;3758651;78;44107;-22
2021/05/18 03:53:38;;;;;;;6.60;4.72;;;;;;;9.69;100.00;97732.34;3757248;77;44126;-22
2021/05/18 03:58:53;;;;;;;6.65;4.50;;;;;;;9.75;100.00;97741.56;3741755;78;44482;-22
2021/05/18 04:03:53;;;;;;;9.43;5.25;;;;;;;9.72;100.00;97745.41;3743594;78;44078;-20
2021/05/18 04:19:50;;;;;;;7.33;5.40;;;;;;;9.66;100.00;97750.98;3677997;79;43434;-22
2021/05/18 04:25:21;;;;;;;7.90;5.33;;;;;;;9.63;100.00;97759.91;3737267;79;69487;-20
2021/05/18 04:52:07;;;;;;;9.07;6.47;;;;;;;9.71;100.00;97789.45;3744734;77;44028;-21
2021/05/18 05:02:53;;;;;;;11.10;7.25;;;;;;;9.99;100.00;97797.98;3686271;79;44095;-21
2021/05/18 05:07:57;;;;;;;8.93;6.37;;;;;;;10.04;100.00;97798.81;3745478;77;44080;-21
2021/05/18 05:18:32;;;;;;;10.20;6.30;;;;;;;10.12;100.00;97804.16;3749301;79;43670;-21
2021/05/18 05:23:39;;;;;;;11.65;7.55;;;;;;;10.09;100.00;97811.22;3751803;77;44055;-21
2021/05/18 05:28:45;;;;;;;13.38;7.80;;;;;;;10.11;100.00;97814.59;3756698;77;43047;-21
2021/05/18 05:33:51;;;;;;;14.20;7.70;;;;;;;10.34;100.00;97821.91;3752502;77;44423;-21
2021/05/18 05:39:07;;;;;;;9.70;6.80;;;;;;;10.40;100.00;97828.47;3749544;77;43455;-21
2021/05/18 05:44:12;;;;;;;11.88;7.97;;;;;;;10.41;100.00;97827.46;3744224;79;43682;-21
2021/05/18 05:49:18;;;;;;;10.45;7.80;;;;;;;10.36;100.00;97826.61;3752244;77;44008;-21
2021/05/18 05:54:24;;;;;;;12.03;8.00;;;;;;;10.38;100.00;97831.35;3746573;77;43722;-21
2021/05/18 05:59:30;;;;;;;11.65;7.92;;;;;;;10.50;100.00;97835.00;3722773;77;43099;-21
2021/05/18 06:04:36;;;;;;;11.10;7.37;;;;;;;10.66;100.00;97836.25;3749704;77;44042;-21
2021/05/18 06:09:42;;;;;;;10.63;8.13;;;;;;;10.74;100.00;97830.84;3750403;79;43254;-21
2021/05/18 06:14:58;;;;;;;9.98;7.50;;;;;;;10.83;100.00;97837.00;3750441;79;43572;-21
2021/05/18 06:42:14;;;;;;;11.50;8.38;;;;;;;11.47;100.00;97853.42;3665546;78;44575;-21
2021/05/18 06:47:30;;;;;;;12.33;8.05;;;;;;;11.60;100.00;97855.49;3754532;78;43565;-23
2021/05/18 06:52:36;;;;;;;12.00;8.75;;;;;;;11.56;100.00;97863.12;3756907;78;43384;-21
2021/05/18 06:57:45;;;;;;;14.35;9.60;;;;;;;11.45;100.00;97868.13;3628888;81;44728;-21
2021/05/18 07:02:52;;;;;;;14.70;9.58;;;;;;;11.48;100.00;97859.64;3655224;79;86738;-21
2021/05/18 07:08:07;;;;;;;13.32;9.55;;;;;;;11.43;100.00;97879.07;3645750;81;43351;-21
2021/05/18 07:13:09;;;;;;;15.30;9.80;;;;;;;11.65;100.00;97884.63;3646856;81;44774;-21
2021/05/18 07:18:15;;;;;;;13.38;9.45;;;;;;;11.95;100.00;97888.77;3646840;81;44129;-21
2021/05/18 07:23:22;;;;;;;13.78;8.78;;;;;;;12.08;100.00;97885.45;3566358;81;43688;-23
2021/05/18 07:28:31;;;;;;;13.05;8.85;;;;;;;12.07;100.00;97887.33;3687092;80;43716;-21
2021/05/18 07:33:36;;;;;;;13.05;8.48;;;;;;;12.29;100.00;97893.66;3563836;82;44082;-21
2021/05/18 07:38:46;;;;;;;11.88;8.18;;;;;;;12.24;100.00;97890.70;3709324;79;43266;-21
2021/05/18 07:43:51;;;;;;;13.53;7.87;;;;;;;12.14;100.00;97888.78;3651269;80;45240;-21
2021/05/18 08:00:06;;;;;;;12.05;7.47;;;;;;;11.56;100.00;97909.50;3661204;79;44078;-21
2021/05/18 08:05:19;;;;;;;14.15;7.83;;;;;;;11.58;100.00;97903.92;3565134;82;26520;-21
2021/05/18 08:10:35;;;;;;;12.23;7.40;;;;;;;11.91;100.00;97906.34;3713358;78;43321;-22
2021/05/18 08:15:59;;;;;;;12.35;7.83;;;;;;;11.82;100.00;97902.86;3648113;80;43373;-21
2021/05/18 08:21:11;;;;;;;13.98;7.72;;;;;;;11.88;100.00;97897.58;3562921;83;43723;-22
2021/05/18 09:02:20;;;;;;;10.38;6.15;;;;;;;12.40;100.00;97901.83;3663638;78;44091;-20
2021/05/18 09:48:49;;;;;;;7.10;4.30;;;;;;;10.93;100.00;97925.72;3655352;79;44085;-21
2021/05/18 10:36:55;;;;;;;1.45;1.32;;;;;;;13.07;100.00;97889.16;3750880;77;43087;-21
2021/05/18 10:42:12;;;;;;;1.85;1.40;;;;;;;13.14;100.00;97885.19;3755530;78;44085;-21
2021/05/18 10:47:18;;;;;;;2.12;1.40;;;;;;;13.18;100.00;97882.43;3752356;77;43010;-21
2021/05/18 10:52:30;;;;;;;3.15;1.45;;;;;;;13.05;100.00;97881.75;3753040;77;44116;-21
2021/05/18 10:57:37;;;;;;;2.47;1.90;;;;;;;12.94;100.00;97872.28;3736097;77;43326;-21
2021/05/18 11:02:45;;;;;;;1.70;1.60;;;;;;;13.08;100.00;97865.67;3741585;78;43688;-21
2021/05/18 11:07:51;;;;;;;2.15;1.70;;;;;;;13.12;100.00;97871.01;3750663;77;44062;-21
2021/05/18 11:12:59;;;;;;;3.10;1.75;;;;;;;13.45;100.00;97858.89;3749953;78;43359;-21
2021/05/18 11:18:06;;;;;;;2.95;1.50;;;;;;;13.30;100.00;97867.05;3749234;77;43719;-21
2021/05/18 11:23:20;;;;;;;1.50;1.12;;;;;;;12.09;100.00;97887.13;3749153;77;43086;-21
2021/05/18 11:28:29;;;;;;;1.52;1.07;;;;;;;11.96;100.00;97885.05;3748556;77;43676;-21
2021/05/18 11:33:37;;;;;;;1.82;1.10;;;;;;;12.35;100.00;97877.75;3722584;78;44008;-21
2021/05/18 11:38:49;;;;;;;1.52;1.42;;;;;;;12.62;100.00;97878.95;3692714;79;43476;-21
2021/05/18 11:43:58;;;;;;;2.25;1.67;;;;;;;13.04;100.00;97869.78;3643522;80;43334;-21
2021/05/18 11:49:07;;;;;;;1.87;1.20;;;;;;;13.42;100.00;97869.59;3705881;79;43305;-21
2021/05/18 11:54:14;;;;;;;1.40;1.05;;;;;;;13.16;100.00;97880.42;3643150;80;43672;-21
2021/05/18 11:59:23;;;;;;;2.27;1.30;;;;;;;13.10;100.00;97873.91;3700839;78;43416;-21
2021/05/18 12:04:32;;;;;;;1.12;1.02;;;;;;;13.20;100.00;97868.70;3640220;80;43466;-20
2021/05/18 12:09:42;;;;;;;1.57;1.22;;;;;;;13.63;94.20;97857.94;3707093;78;44039;-21
2021/05/18 12:14:50;;;;;;;1.62;1.30;;;;;;;13.90;93.40;97847.30;3707627;79;44037;-20
2021/05/18 12:19:58;;;;;;;1.50;1.27;;;;;;;14.01;93.22;97854.05;3697551;78;43353;-21
2021/05/18 12:25:06;;;;;;;1.77;1.20;;;;;;;14.11;100.00;97853.18;3691832;78;42985;-21
2021/05/18 12:30:15;;;;;;;1.52;1.20;;;;;;;14.16;89.64;97855.30;3699947;78;43410;-20
2021/05/18 12:35:22;;;;;;;1.90;1.17;;;;;;;14.28;88.35;97848.28;3739701;77;43992;-21
2021/05/18 12:40:34;;;;;;;1.57;1.20;;;;;;;14.55;83.75;97837.59;3759435;78;44429;-21
2021/05/18 12:45:43;;;;;;;1.82;1.10;;;;;;;14.86;86.49;97836.81;3756391;78;43408;-21
2021/05/18 12:50:51;;;;;;;2.80;1.17;;;;;;;15.23;80.83;97828.66;3759771;77;44204;-21
2021/05/18 12:56:00;;;;;;;1.82;1.15;;;;;;;15.37;83.27;97823.26;3762574;78;43669;-21
2021/05/18 13:01:08;;;;;;;1.92;1.30;;;;;;;15.70;79.33;97821.89;3764031;77;44059;-21
2021/05/18 13:06:14;;;;;;;2.65;1.20;;;;;;;15.82;73.86;97811.75;3755094;77;44380;-21
2021/05/18 13:12:11;;;;;;;1.47;0.90;;;;;;;15.89;81.27;97812.64;3758949;78;43333;-21
2021/05/18 13:16:37;;;;;;;1.62;1.00;;;;;;;15.90;72.59;97800.73;3754630;77;43723;-21
2021/05/18 13:21:48;;;;;;;2.50;1.00;;;;;;;15.40;76.15;97811.45;3758176;77;43570;-21
2021/05/18 13:26:54;;;;;;;2.98;1.20;;;;;;;15.05;75.79;97813.50;3756646;77;44452;-21
2021/05/18 13:32:02;;;;;;;2.00;1.00;;;;;;;14.85;79.10;97825.11;3756674;77;44020;-21
2021/05/18 13:37:10;;;;;;;4.17;1.27;;;;;;;13.35;89.66;97845.14;3752850;77;43433;-21
2021/05/18 13:42:16;;;;;;;5.58;1.62;;;;;;;11.58;100.00;97875.09;3747579;78;43774;-23
2021/05/18 13:47:22;;;;;;;4.33;1.70;;;;;;;10.85;100.00;97898.83;3757684;77;44077;-23
2021/05/18 13:52:29;;;;;;;1.72;1.42;;;;;;;10.65;100.00;97884.41;3744053;77;44087;-23
2021/05/18 13:57:36;;;;;;;4.30;1.50;;;;;;;10.70;100.00;97887.95;3747122;77;43472;-23
2021/05/18 14:02:43;;;;;;;2.80;1.77;;;;;;;10.68;100.00;97892.67;3750529;77;43420;-22
2021/05/18 14:08:31;;;;;;;1.98;1.30;;;;;;;10.70;100.00;97903.59;3760523;77;43497;-22
2021/05/18 14:13:39;;;;;;;1.98;1.37;;;;;;;10.68;100.00;97908.31;3737936;78;44081;-22
2021/05/18 14:18:46;;;;;;;3.10;1.80;;;;;;;10.78;100.00;97907.59;3748531;77;43775;-22
2021/05/18 14:23:58;;;;;;;2.27;1.80;;;;;;;10.97;100.00;97910.89;3758718;77;44044;-19
2021/05/18 14:29:02;;;;;;;1.67;1.07;;;;;;;10.93;100.00;97912.25;3745681;77;43293;-21
2021/05/18 14:34:08;;;;;;;2.00;0.80;;;;;;;10.92;100.00;97910.08;3759102;78;44491;-22
2021/05/18 14:39:22;;;;;;;1.42;0.70;;;;;;;10.80;100.00;97906.09;3740732;78;42648;-22
2021/05/18 14:44:23;;;;;;;1.47;1.10;;;;;;;10.74;100.00;97897.34;3741023;78;43454;-22
2021/05/18 14:55:01;;;;;;;0.95;0.72;;;;;;;10.74;100.00;97884.73;3743813;78;44006;-21
2021/05/18 15:00:09;;;;;;;0.60;0.60;;;;;;;10.69;100.00;97880.88;3746446;78;44041;-21
2021/05/18 15:05:18;;;;;;;0.85;0.68;;;;;;;10.79;100.00;97876.11;3745403;78;43678;-21
2021/05/18 15:10:24;;;;;;;0.78;0.72;;;;;;;11.30;100.00;97870.24;3745494;78;44090;-22
2021/05/18 15:15:31;;;;;;;2.20;0.80;;;;;;;11.71;100.00;97865.85;3743137;78;43641;-21
2021/05/18 15:20:37;;;;;;;1.22;0.75;;;;;;;12.20;100.00;97862.38;3743869;78;43673;-21
2021/05/18 15:25:43;;;;;;;1.47;0.80;;;;;;;13.08;100.00;97858.92;3742583;78;43686;-22
2021/05/18 15:30:49;;;;;;;0.50;0.50;;;;;;;14.35;100.00;97851.03;3742996;78;44650;-22
2021/05/18 15:35:56;;;;;;;0.50;0.50;;;;;;;15.07;100.00;97857.01;3740610;78;43490;-22
2021/05/18 15:41:02;;;;;;;2.17;0.60;;;;;;;15.28;100.00;97847.03;3742704;78;43480;-22
2021/05/18 15:46:08;;;;;;;1.30;0.70;;;;;;;16.13;100.00;97842.38;3741894;78;43988;-22
2021/05/18 15:51:14;;;;;;;0.40;0.40;;;;;;;16.53;100.00;97836.54;3739989;78;43132;-22
2021/05/18 15:56:22;;;;;;;1.60;0.80;;;;;;;16.71;99.28;97832.59;3746021;78;43952;-22
2021/05/18 16:01:30;;;;;;;1.30;0.80;;;;;;;17.06;100.00;97834.97;3736925;78;43965;-22
2021/05/18 16:06:41;;;;;;;1.47;1.30;;;;;;;16.86;100.00;97830.98;3582557;81;43038;-22
2021/05/18 16:11:47;;;;;;;2.58;1.35;;;;;;;17.22;100.00;97839.09;3740385;78;43995;-22
2021/05/18 16:16:54;;;;;;;1.82;1.27;;;;;;;16.86;100.00;97841.01;3745575;78;44066;-22
2021/05/18 16:22:02;;;;;;;2.60;1.17;;;;;;;16.80;100.00;97838.63;3738247;78;44094;-22
2021/05/18 16:27:12;;;;;;;2.10;1.02;;;;;;;16.45;100.00;97849.33;3742216;78;43710;-22
2021/05/18 16:32:17;;;;;;;1.37;1.22;;;;;;;16.43;100.00;97845.98;3743001;78;43373;-23
2021/05/18 16:37:24;;;;;;;1.67;1.30;;;;;;;16.12;100.00;97852.11;3749539;78;43649;-23
2021/05/18 16:42:34;;;;;;;2.05;1.70;;;;;;;15.55;100.00;97855.22;3642906;81;44054;-22
2021/05/18 16:47:42;;;;;;;1.92;1.50;;;;;;;15.34;100.00;97849.45;3749448;78;44018;-23
2021/05/18 16:52:49;;;;;;;1.37;1.12;;;;;;;14.69;100.00;97854.78;3641262;80;43267;-21
2021/05/18 16:57:55;;;;;;;1.10;1.00;;;;;;;14.59;100.00;97846.16;3745695;78;43737;-22
2021/05/18 17:03:01;;;;;;;1.30;1.00;;;;;;;14.51;100.00;97844.98;3735663;78;43685;-21
2021/05/18 17:08:08;;;;;;;1.40;1.30;;;;;;;14.13;100.00;97847.05;3600927;81;43673;-23
2021/05/18 17:13:14;;;;;;;0.75;0.65;;;;;;;13.54;100.00;97873.45;3748249;76;44069;-23
2021/05/18 17:18:22;;;;;;;1.92;0.60;;;;;;;12.08;100.00;97890.36;3736337;78;43686;-22
2021/05/18 17:23:28;;;;;;;0.62;0.60;;;;;;;11.17;100.00;97899.65;3737787;78;43719;-23
2021/05/18 17:28:37;;;;;;;1.30;0.80;;;;;;;10.65;100.00;97897.87;3745300;78;44031;-22
2021/05/18 17:33:43;;;;;;;0.80;0.80;;;;;;;10.54;100.00;97892.38;3753107;78;44082;-21
2021/05/18 17:38:50;;;;;;;1.35;1.07;;;;;;;10.52;100.00;97893.06;3749817;78;43691;-21
2021/05/18 17:43:56;;;;;;;2.55;1.07;;;;;;;10.55;100.00;97889.17;3738544;79;43482;-22
2021/05/18 17:49:03;;;;;;;0.80;0.73;;;;;;;10.53;100.00;97891.19;3739953;78;43681;-22
2021/05/18 17:54:10;;;;;;;1.00;0.60;;;;;;;10.45;100.00;97895.61;3717528;78;44027;-21
2021/05/18 17:59:16;;;;;;;0.65;0.65;;;;;;;10.49;100.00;97902.83;3743415;79;45254;-21
2021/05/18 18:04:24;;;;;;;1.50;0.60;;;;;;;10.56;100.00;97909.70;3731667;78;43987;-21
2021/05/18 18:09:37;;;;;;;0.98;0.80;;;;;;;10.53;100.00;97922.16;3743598;79;43722;-20
2021/05/18 18:14:39;;;;;;;1.25;0.70;;;;;;;10.57;100.00;97929.75;3731786;78;43979;-20
2021/05/18 18:19:45;;;;;;;0.90;0.80;;;;;;;10.66;100.00;97934.58;3739440;78;44078;-20
2021/05/18 18:24:50;;;;;;;0.88;0.80;;;;;;;10.85;100.00;97929.81;3739416;78;43575;-21
2021/05/18 18:29:57;;;;;;;1.98;0.85;;;;;;;10.97;100.00;97927.06;3743567;79;44085;-21
2021/05/18 18:35:04;;;;;;;1.27;1.00;;;;;;;10.85;100.00;97935.20;3738779;78;43445;-21
2021/05/18 18:40:13;;;;;;;0.85;0.75;;;;;;;10.71;100.00;97945.69;3760558;78;43677;-21
2021/05/18 18:45:19;;;;;;;0.80;0.80;;;;;;;10.43;100.00;97942.06;3739556;77;44491;-21
2021/05/18 18:50:28;;;;;;;1.57;0.80;;;;;;;10.41;100.00;97941.91;3760145;77;43391;-21
2021/05/18 18:55:32;;;;;;;1.22;1.10;;;;;;;10.30;100.00;97940.38;3757069;77;44091;-21
2021/05/18 19:00:40;;;;;;;0.95;0.90;;;;;;;10.23;100.00;97935.35;3765289;77;44039;-21
2021/05/18 19:05:55;;;;;;;1.10;0.80;;;;;;;10.11;100.00;97946.99;3766573;77;73205;-21
2021/05/18 19:16:28;;;;;;;1.37;0.78;;;;;;;9.92;100.00;97958.94;3720088;77;44038;-21
2021/05/18 19:21:34;;;;;;;1.57;0.90;;;;;;;9.87;100.00;97960.28;3757296;78;44189;-20
2021/05/18 19:26:42;;;;;;;0.73;0.70;;;;;;;9.88;100.00;97970.52;3757676;77;73177;-21
2021/05/18 19:31:48;;;;;;;1.62;0.90;;;;;;;9.90;100.00;97971.20;3764073;77;43311;-21
2021/05/18 19:37:13;;;;;;;0.90;0.80;;;;;;;9.87;100.00;97975.59;3759266;78;73453;-21
2021/05/18 19:42:28;;;;;;;1.80;0.80;;;;;;;9.90;100.00;97978.44;3760608;78;43345;-21
2021/05/18 19:53:14;;;;;;;1.15;1.00;;;;;;;9.85;100.00;97974.39;3756535;78;44080;-21
2021/05/18 19:58:45;;;;;;;1.37;1.10;;;;;;;9.85;100.00;97990.54;3742818;77;44155;-21
2021/05/18 20:09:34;;;;;;;1.57;1.20;;;;;;;9.83;100.00;97987.17;3749233;78;43722;-21
2021/05/18 20:19:52;;;;;;;1.72;1.45;;;;;;;9.90;100.00;97994.59;3751726;77;44476;-22
2021/05/18 20:24:59;;;;;;;2.37;1.82;;;;;;;9.90;100.00;97994.59;3749421;77;43354;-22
2021/05/18 20:30:08;;;;;;;2.72;1.70;;;;;;;9.87;100.00;97993.91;3762092;77;43356;-23
2021/05/18 20:35:31;;;;;;;2.10;1.90;;;;;;;9.79;100.00;97997.95;3759319;77;43487;-22
2021/05/18 20:40:34;;;;;;;2.50;2.02;;;;;;;9.80;100.00;98002.33;3731969;78;43690;-23
2021/05/18 20:45:40;;;;;;;3.25;2.10;;;;;;;9.75;100.00;98003.31;3729379;78;44392;-23
2021/05/18 20:50:46;;;;;;;2.67;2.17;;;;;;;9.70;100.00;97993.06;3729561;79;44112;-23
2021/05/18 20:55:54;;;;;;;2.95;2.08;;;;;;;9.72;100.00;97996.91;3726026;78;44212;-23
2021/05/18 21:01:00;;;;;;;3.10;2.10;;;;;;;9.70;100.00;97993.06;3634570;80;42906;-23
2021/05/18 21:06:09;;;;;;;2.30;2.00;;;;;;;9.70;100.00;98001.64;3724731;78;44517;-24
2021/05/18 21:16:39;;;;;;;2.37;2.08;;;;;;;9.59;100.00;98004.63;3718086;78;43724;-22
2021/05/18 21:21:45;;;;;;;2.80;2.27;;;;;;;9.60;100.00;98000.44;3719868;79;73256;-22
2021/05/18 21:26:51;;;;;;;2.77;2.40;;;;;;;9.57;100.00;98010.17;3714531;79;43436;-22
2021/05/18 21:31:57;;;;;;;2.10;1.83;;;;;;;9.55;100.00;98005.46;3726444;78;43686;-22
2021/05/18 21:37:04;;;;;;;2.35;2.02;;;;;;;9.51;100.00;98002.78;3726778;78;43406;-22
2021/05/18 21:42:10;;;;;;;3.03;2.20;;;;;;;9.48;100.00;98013.34;3740515;77;43708;-22
2021/05/18 21:47:16;;;;;;;2.13;1.90;;;;;;;9.39;100.00;98015.20;3762777;77;44638;-23
2021/05/18 21:52:23;;;;;;;4.85;2.00;;;;;;;9.30;100.00;98014.80;3755574;78;43315;-23
2021/05/18 21:57:29;;;;;;;2.62;2.00;;;;;;;9.27;100.00;98018.33;3740636;79;43609;-23
2021/05/18 22:02:36;;;;;;;3.70;2.30;;;;;;;9.16;100.00;98025.69;3762828;77;44603;-23
2021/05/18 22:07:43;;;;;;;5.37;2.40;;;;;;;9.17;100.00;98024.69;3741787;77;43113;-23
2021/05/18 22:13:03;;;;;;;4.33;2.70;;;;;;;9.09;100.00;98021.98;3748556;77;44700;-23
2021/05/18 22:26:01;;;;;;;4.28;3.05;;;;;;;9.04;100.00;98027.84;3754607;78;44028;-22
2021/05/18 22:28:38;;;;;;;4.63;3.17;;;;;;;9.00;100.00;98028.29;3745457;78;44489;-22
2021/05/18 22:33:44;;;;;;;4.08;2.90;;;;;;;8.97;100.00;98028.64;3738836;77;44425;-23
2021/05/18 22:38:50;;;;;;;4.45;3.05;;;;;;;8.95;100.00;98026.09;3751403;78;44092;-22
2021/05/18 22:43:56;;;;;;;4.10;3.08;;;;;;;8.98;100.00;98022.27;3637810;80;44181;-22
2021/05/18 22:49:01;;;;;;;4.37;3.00;;;;;;;9.03;100.00;98022.61;3737883;78;43699;-23
2021/05/18 22:54:07;;;;;;;5.00;3.62;;;;;;;9.04;100.00;98026.98;3736100;78;44753;-23
2021/05/18 22:59:16;;;;;;;4.77;3.20;;;;;;;8.96;100.00;98017.03;3737903;78;43473;-23
2021/05/18 23:04:22;;;;;;;3.70;2.80;;;;;;;8.93;100.00;98022.23;3740635;78;44293;-23
2021/05/18 23:09:28;;;;;;;4.07;3.07;;;;;;;8.93;100.00;98026.78;3743758;78;42782;-23
2021/05/18 23:14:37;;;;;;;4.87;2.50;;;;;;;9.00;100.00;98021.09;3735698;78;44194;-23
2021/05/18 23:19:41;;;;;;;3.93;2.80;;;;;;;9.00;100.00;98021.58;3574154;81;44156;-23
2021/05/18 23:24:48;;;;;;;3.47;2.70;;;;;;;8.94;100.00;98024.41;3742044;78;43713;-23
2021/05/18 23:29:54;;;;;;;3.13;2.63;;;;;;;8.88;100.00;98022.38;3633523;80;43401;-23
2021/05/18 23:35:01;;;;;;;3.00;2.20;;;;;;;8.87;100.00;98026.06;3734839;78;44514;-23
2021/05/18 23:40:10;;;;;;;2.93;2.20;;;;;;;8.81;100.00;98024.86;3741374;78;43209;-23
2021/05/18 23:45:16;;;;;;;2.20;2.00;;;;;;;8.72;100.00;98024.48;3745747;77;44003;-23
2021/05/18 23:50:22;;;;;;;2.40;2.00;;;;;;;8.72;100.00;98026.65;3757837;78;44111;-23
2021/05/18 23:55:28;;;;;;;4.95;2.15;;;;;;;8.77;100.00;98030.20;3756301;78;43373;-24
